Warning: Javascript must be enabled to use all the features on this page!


Page Loading - Please Wait...

* We've detected you're using a mobile device. Find our Next Generation Station Page here.
Click to hideNews Bulletins

Peak Streamflow for the Nation

USGS 02193340 KETTLE CREEK NEAR WASHINGTON, GA

Wilkes County, Georgia
Hydrologic Unit Code 03060105
Latitude  33°40'57.6", Longitude  82°51'30.6" NAD83
Drainage area 33.9  square miles
Contributing drainage area 33.9  square miles
Gage datum 415.6 feet above NAVD88
Output formats
Table
Graph
Tab-separated file
peakfq (watstore) format
Reselect output format
Water
Year
Date Gage
Height
(feet)
Stream-
flow
(cfs)
1987 1987-03-01 11.26 1,740
1988 1988-02-04 9.74 1,320
1989 1989-04-15 11.45 1,850
1990 1989-10-01 17.68 4,150
1991 1991-08-26 13.77 2,640
1992 1992-03-07 12.61 2,240
1993 1992-11-26 12.89 2,330
1994 1994-08-17 15.57 3,310
1995 1995-02-11 14.82 3,030
1996 1996-03-07 13.92 2,680
1997 1997-02-28 12.87 2,310
1998 1998-02-04 13.62 2,600
1999 1999-06-29 11.30 1,840
2000 2000-02-14 10.50 1,570
2001 2001-06-13 14.19 2,810
2002 2002-03-30 7.55 662
2003 2003-05-22 12.93 2,370
2004 2004-09-27 14.02 2,740
2005 2005-08-07 11.24 1,820
2006 2006-02-26 7.69 698
2007 2007-03-02 12.10 2,100
2008 2008-02-01 6.45 405
2009 2009-09-22 16.62 3,730
2010 2009-10-12 13.48 2,560
2011 2011-03-28 10.43 1,550
2012 2012-02-24 7.66 690
2013 2013-05-05 12.65 2,280
2014 2013-12-29 13.87 2,700
2015 2014-12-28 7.78 721
2016 2015-12-22 16.92 3,840
2017 2017-01-03 6.50 415
2018 2018-05-29 10.36 1,520
2019 2019-01-04 13.82 2,680
2020 2020-02-06 16.53 3,690
2021 2021-01-01 12.03 2,070
2022 2022-04-07 16.64 3,730
2023 2023-01-22 11.06 1,770